Jacques Jacob — ZDKG7 — position and weather

sailwx.info

Track history (hours):
 
Tides and Currents Weather Stations Pressure Air Temp Water Temp Dewpoint Dewpoint Depression Visibility Wind Speed Wind Dir Waves Ship Positions

Jacques Jacob

Last reported at 2014-Aug-30 09:18 UTC. Time now 2014-Sep-02 02:13 UTC.
Position N 35°60' W 005°24'.

Length 228 m; draft 13.5 m.

Type: Tanker. MMSI: 236612000.

Date/timePositionNaut miles runAvg speedWind from/ knotsBaromVisibWave heightAir tempDewpointWater temp
2014-Aug-30 09:18N 35°60' W 005°24'7312.6
2014-Aug-30 03:33N 35°49' W 006°52'1212.1
2014-Aug-30 02:33N 35°47' W 007°07'1212.0
2014-Aug-30 01:33N 35°45' W 007°22'1212.1
2014-Aug-30 00:33N 35°43' W 007°36'1211.9
2014-Aug-29 23:32N 35°41' W 007°51'1211.8
2014-Aug-29 22:31N 35°39' W 008°06'1212.0
2014-Aug-29 21:32N 35°37' W 008°20'1211.9
2014-Aug-29 20:33N 35°35' W 008°34'1211.9
2014-Aug-29 19:33N 35°34' W 008°49'1211.9
2014-Aug-29 18:32N 35°32' W 009°03'1212.2
2014-Aug-29 17:33N 35°30' W 009°18'1212.0
2014-Aug-29 16:32N 35°28' W 009°33'1211.9
2014-Aug-29 15:33N 35°26' W 009°47'3711.9
2014-Aug-29 12:25N 35°21' W 010°32'  
Track history (hours):
 
Tides and Currents Weather Stations Pressure Air Temp Water Temp Dewpoint Dewpoint Depression Visibility Wind Speed Wind Dir Waves Ship Positions

Jacques Jacob

Last reported at 2014-Aug-30 09:18 UTC. Time now 2014-Sep-02 02:13 UTC.
Position N 35°60' W 005°24'.

Length 228 m; draft 13.5 m.

Type: Tanker. MMSI: 236612000.

Date/timePositionNaut miles runAvg speedWind from/ knotsBaromVisibWave heightAir tempDewpointWater temp
2014-Aug-30 09:18N 35°60' W 005°24'7312.6
2014-Aug-30 03:33N 35°49' W 006°52'1212.1
2014-Aug-30 02:33N 35°47' W 007°07'1212.0
2014-Aug-30 01:33N 35°45' W 007°22'1212.1
2014-Aug-30 00:33N 35°43' W 007°36'1211.9
2014-Aug-29 23:32N 35°41' W 007°51'1211.8
2014-Aug-29 22:31N 35°39' W 008°06'1212.0
2014-Aug-29 21:32N 35°37' W 008°20'1211.9
2014-Aug-29 20:33N 35°35' W 008°34'1211.9
2014-Aug-29 19:33N 35°34' W 008°49'1211.9
2014-Aug-29 18:32N 35°32' W 009°03'1212.2
2014-Aug-29 17:33N 35°30' W 009°18'1212.0
2014-Aug-29 16:32N 35°28' W 009°33'1211.9
2014-Aug-29 15:33N 35°26' W 009°47'3711.9
2014-Aug-29 12:25N 35°21' W 010°32'  

Dump ship's entire track history